createdAt,value
2022-08-30T00:01:14.415Z,3.90
2022-08-30T00:03:47.237Z,4.28
2022-08-30T00:06:16.958Z,3.50
2022-08-30T00:08:45.482Z,3.80
2022-08-30T00:11:15.361Z,3.75
2022-08-30T00:13:45.820Z,3.72
2022-08-30T00:16:13.703Z,3.80
2022-08-30T00:18:42.045Z,3.92
2022-08-30T00:21:10.199Z,3.70
2022-08-30T00:23:38.517Z,3.40
2022-08-30T00:26:06.897Z,4.15
2022-08-30T00:28:34.594Z,3.75
2022-08-30T00:31:02.669Z,3.45
2022-08-30T00:33:30.232Z,3.63
2022-08-30T00:35:57.528Z,3.65
2022-08-30T00:38:24.870Z,3.67
2022-08-30T00:40:52.996Z,3.60
2022-08-30T00:43:24.509Z,2.97
2022-08-30T00:45:55.350Z,2.92
2022-08-30T00:48:23.353Z,2.90
2022-08-30T00:50:56.504Z,3.22
2022-08-30T00:53:27.411Z,3.15
2022-08-30T00:55:55.439Z,2.92
2022-08-30T00:58:28.359Z,3.35
2022-08-30T01:00:58.672Z,3.15
2022-08-30T01:03:25.886Z,3.22
2022-08-30T01:05:53.833Z,3.00
2022-08-30T01:08:24.182Z,3.00
2022-08-30T01:10:53.105Z,3.30
2022-08-30T01:13:22.086Z,3.20
2022-08-30T01:15:50.862Z,2.88
2022-08-30T01:18:20.888Z,3.10
2022-08-30T01:21:12.109Z,3.17
2022-08-30T01:23:43.047Z,3.38
2022-08-30T01:26:13.506Z,3.17
2022-08-30T01:28:48.871Z,3.37
2022-08-30T01:31:16.736Z,3.03
2022-08-30T01:33:43.870Z,3.17
2022-08-30T01:36:14.434Z,2.72
2022-08-30T01:38:53.678Z,3.03
2022-08-30T01:41:24.084Z,2.80
2022-08-30T01:43:53.934Z,3.30
2022-08-30T01:46:24.681Z,3.00
2022-08-30T01:48:56.348Z,3.20
2022-08-30T01:51:27.583Z,2.80
2022-08-30T01:53:55.082Z,3.20
2022-08-30T01:56:23.690Z,3.38
2022-08-30T01:58:52.345Z,3.00
2022-08-30T02:01:22.851Z,3.40
2022-08-30T02:03:50.616Z,3.25
2022-08-30T02:06:19.693Z,2.92
2022-08-30T02:08:47.928Z,3.05
2022-08-30T02:11:15.534Z,2.88
2022-08-30T02:13:45.269Z,2.83
2022-08-30T02:16:16.375Z,3.33
2022-08-30T02:18:44.463Z,2.83
2022-08-30T02:21:13.070Z,2.65
2022-08-30T02:23:41.270Z,2.50
2022-08-30T02:26:09.538Z,3.10
2022-08-30T02:28:42.814Z,3.15
2022-08-30T02:31:18.031Z,2.67
2022-08-30T02:33:48.729Z,3.33
2022-08-30T02:36:16.283Z,3.17
2022-08-30T02:38:43.764Z,2.70
2022-08-30T02:41:11.059Z,3.17
2022-08-30T02:43:38.355Z,3.03
2022-08-30T02:46:05.942Z,2.95
2022-08-30T02:48:33.462Z,3.22
2022-08-30T02:51:07.337Z,2.97
2022-08-30T02:53:40.303Z,2.83
2022-08-30T02:56:07.901Z,3.08
2022-08-30T02:58:35.055Z,2.92
2022-08-30T03:01:02.512Z,2.97
2022-08-30T03:03:29.753Z,3.15
2022-08-30T03:05:57.089Z,3.30
2022-08-30T03:08:24.749Z,3.70
2022-08-30T03:10:52.782Z,3.47
2022-08-30T03:13:19.954Z,3.13
2022-08-30T03:15:50.530Z,2.60
2022-08-30T03:18:18.699Z,3.20
2022-08-30T03:20:54.257Z,2.88
2022-08-30T03:23:23.842Z,3.10
2022-08-30T03:25:51.751Z,2.92
2022-08-30T03:28:18.972Z,3.10
2022-08-30T03:30:46.257Z,3.00
2022-08-30T03:33:13.559Z,3.10
2022-08-30T03:35:40.984Z,3.72
2022-08-30T03:38:08.678Z,3.67
2022-08-30T03:40:36.540Z,3.00
2022-08-30T03:43:04.355Z,3.38
2022-08-30T03:45:32.664Z,3.25
2022-08-30T03:48:00.278Z,3.08
2022-08-30T03:50:27.618Z,3.50
2022-08-30T03:52:55.586Z,3.13
2022-08-30T03:55:23.404Z,3.35
2022-08-30T03:57:50.680Z,3.50
2022-08-30T04:00:20.071Z,3.60
2022-08-30T04:02:47.321Z,3.08
2022-08-30T04:05:14.858Z,3.78
2022-08-30T04:07:46.698Z,3.60
2022-08-30T04:10:14.130Z,4.10
2022-08-30T04:12:43.274Z,3.35
2022-08-30T04:15:14.560Z,3.40
2022-08-30T04:17:41.924Z,3.83
2022-08-30T04:20:09.763Z,3.58
2022-08-30T04:22:37.291Z,3.75
2022-08-30T04:25:05.447Z,3.83
2022-08-30T04:27:33.290Z,4.32
2022-08-30T04:30:00.449Z,3.53
2022-08-30T04:32:28.138Z,4.07
2022-08-30T04:34:59.845Z,3.00
2022-08-30T04:37:27.181Z,3.70
2022-08-30T04:40:00.829Z,4.15
2022-08-30T04:42:31.836Z,3.80
2022-08-30T04:45:01.786Z,3.72
2022-08-30T04:47:29.121Z,3.10
2022-08-30T04:49:56.349Z,3.10
2022-08-30T04:52:23.461Z,3.50
2022-08-30T04:54:57.659Z,3.72
2022-08-30T04:57:26.450Z,3.38
2022-08-30T04:59:54.234Z,3.75
2022-08-30T05:02:21.945Z,3.22
2022-08-30T05:05:08.277Z,3.30
2022-08-30T05:07:35.928Z,2.90
2022-08-30T05:10:07.870Z,3.05
2022-08-30T05:12:37.834Z,2.90
2022-08-30T05:15:05.297Z,3.10
2022-08-30T05:17:32.843Z,3.08
2022-08-30T05:20:02.365Z,2.20
2022-08-30T05:22:29.683Z,2.55
2022-08-30T05:24:56.893Z,2.63
2022-08-30T05:27:24.288Z,2.80
2022-08-30T05:29:51.581Z,2.80
2022-08-30T05:32:19.269Z,3.10
2022-08-30T05:34:46.567Z,2.72
2022-08-30T05:37:13.923Z,3.40
2022-08-30T05:39:45.144Z,2.67
2022-08-30T05:42:19.639Z,2.67
2022-08-30T05:44:47.942Z,2.60
2022-08-30T05:47:15.260Z,2.88
2022-08-30T05:49:42.409Z,2.55
2022-08-30T05:52:09.568Z,2.75
2022-08-30T05:54:36.789Z,3.20
2022-08-30T05:57:03.985Z,3.28
2022-08-30T05:59:31.478Z,2.72
2022-08-30T06:01:58.871Z,3.03
2022-08-30T06:04:26.933Z,3.00
2022-08-30T06:06:54.839Z,2.55
2022-08-30T06:09:22.009Z,2.65
2022-08-30T06:11:49.146Z,2.47
2022-08-30T06:14:16.430Z,2.78
2022-08-30T06:16:46.102Z,2.55
2022-08-30T06:19:15.712Z,2.60
2022-08-30T06:21:43.518Z,2.33
2022-08-30T06:24:12.010Z,2.85
2022-08-30T06:26:43.074Z,2.70
2022-08-30T06:29:13.374Z,2.50
2022-08-30T06:31:41.071Z,3.17
2022-08-30T06:34:08.380Z,2.80
2022-08-30T06:36:36.561Z,2.67
2022-08-30T06:39:04.338Z,2.10
2022-08-30T06:41:34.706Z,2.60
2022-08-30T06:44:04.426Z,2.42
2022-08-30T06:46:35.332Z,2.30
2022-08-30T06:49:04.597Z,2.20
2022-08-30T06:51:36.234Z,2.28
2022-08-30T06:54:04.792Z,2.50
2022-08-30T06:56:32.701Z,2.33
2022-08-30T06:59:00.220Z,2.17
2022-08-30T07:01:29.938Z,2.15
2022-08-30T07:03:58.781Z,1.90
2022-08-30T07:06:27.702Z,2.08
2022-08-30T07:08:56.171Z,2.05
2022-08-30T07:11:28.516Z,2.28
2022-08-30T07:13:56.605Z,2.00
2022-08-30T07:16:24.042Z,1.83
2022-08-30T07:18:51.667Z,1.60
2022-08-30T07:21:26.654Z,1.48
2022-08-30T07:23:56.621Z,2.00
2022-08-30T07:26:28.144Z,1.98
2022-08-30T07:28:56.578Z,2.00
2022-08-30T07:31:25.126Z,2.22
2022-08-30T07:33:53.023Z,2.83
2022-08-30T07:36:22.161Z,2.50
2022-08-30T07:38:51.104Z,2.33
2022-08-30T07:41:30.373Z,2.38
2022-08-30T07:43:58.555Z,3.20
2022-08-30T07:46:26.407Z,2.53
2022-08-30T07:48:55.382Z,2.30
2022-08-30T07:51:25.780Z,2.40
2022-08-30T07:53:53.260Z,2.30
2022-08-30T07:56:21.140Z,2.10
2022-08-30T07:58:48.938Z,2.13
2022-08-30T08:01:17.405Z,2.03
2022-08-30T08:03:45.671Z,2.15
2022-08-30T08:06:14.793Z,2.10
2022-08-30T08:08:42.649Z,2.17
2022-08-30T08:11:23.644Z,2.53
2022-08-30T08:13:54.125Z,1.85
2022-08-30T08:16:24.759Z,1.90
2022-08-30T08:18:53.183Z,2.00
2022-08-30T08:21:23.007Z,1.65
2022-08-30T08:23:50.480Z,1.90
2022-08-30T08:26:18.259Z,2.10
2022-08-30T08:28:47.282Z,1.70
2022-08-30T08:31:27.060Z,2.00
2022-08-30T08:36:31.609Z,3.25
2022-08-30T08:38:59.315Z,2.50
2022-08-30T08:41:29.396Z,1.92
2022-08-30T08:43:56.809Z,2.05
2022-08-30T08:46:48.523Z,1.83
2022-08-30T08:49:15.941Z,2.38
2022-08-30T08:52:01.966Z,1.95
2022-08-30T08:54:54.043Z,1.90
2022-08-30T08:57:24.735Z,2.95
2022-08-30T08:59:54.632Z,2.53
2022-08-30T09:02:34.570Z,2.35
2022-08-30T09:05:03.761Z,2.70
2022-08-30T09:07:37.161Z,2.58
2022-08-30T09:10:05.301Z,2.30
2022-08-30T09:12:32.485Z,2.65
2022-08-30T09:15:12.405Z,3.30
2022-08-30T09:17:54.933Z,2.50
2022-08-30T09:20:31.235Z,2.50
2022-08-30T09:22:59.652Z,2.60
2022-08-30T09:25:31.234Z,2.65
2022-08-30T09:28:13.976Z,3.10
2022-08-30T09:30:59.845Z,2.75
2022-08-30T09:33:29.107Z,3.05
2022-08-30T09:35:59.688Z,3.00
2022-08-30T09:38:33.724Z,2.95
2022-08-30T09:41:22.158Z,2.95
2022-08-30T09:44:10.289Z,3.25
2022-08-30T09:46:46.501Z,3.63
2022-08-30T09:49:39.178Z,2.85
2022-08-30T09:52:56.726Z,3.03
2022-08-30T09:55:43.408Z,5.03
2022-08-30T09:58:38.327Z,5.65
2022-08-30T10:01:32.471Z,3.50
2022-08-30T10:04:49.869Z,3.00
2022-08-30T10:07:19.540Z,2.80
2022-08-30T10:10:01.679Z,2.90
2022-08-30T10:12:45.548Z,3.10
2022-08-30T10:15:38.515Z,2.88
2022-08-30T10:18:28.959Z,3.00
2022-08-30T10:21:21.606Z,2.75
2022-08-30T10:23:57.803Z,2.80
2022-08-30T10:26:33.392Z,2.95
2022-08-30T10:29:17.003Z,2.90
2022-08-30T10:32:19.438Z,2.78
2022-08-30T10:34:54.599Z,2.97
2022-08-30T10:37:25.905Z,2.80
2022-08-30T10:40:23.066Z,2.58
2022-08-30T10:42:54.469Z,2.70
2022-08-30T10:45:23.996Z,2.45
2022-08-30T10:48:00.505Z,2.40
2022-08-30T10:50:39.098Z,2.20
2022-08-30T10:53:35.294Z,2.70
2022-08-30T10:56:24.750Z,2.40
2022-08-30T10:58:55.137Z,2.65
2022-08-30T11:01:46.277Z,2.70
2022-08-30T11:04:31.053Z,2.60
2022-08-30T11:07:17.108Z,2.78
2022-08-30T11:10:21.451Z,2.90
2022-08-30T11:13:10.997Z,2.58
2022-08-30T11:16:06.720Z,2.78
2022-08-30T11:18:51.161Z,2.80
2022-08-30T11:21:39.491Z,2.80
2022-08-30T11:24:26.046Z,2.95
2022-08-30T11:26:58.576Z,2.80
2022-08-30T11:29:30.913Z,2.75
2022-08-30T11:32:19.006Z,2.70
2022-08-30T11:34:46.644Z,2.30
2022-08-30T11:37:36.880Z,2.78
2022-08-30T11:40:15.560Z,2.90
2022-08-30T11:42:50.078Z,2.83
2022-08-30T11:45:25.423Z,2.50
2022-08-30T11:48:29.011Z,2.65
2022-08-30T11:53:38.498Z,2.42
2022-08-30T11:56:29.176Z,2.60
2022-08-30T11:59:11.826Z,2.92
2022-08-30T12:01:51.183Z,2.70
2022-08-30T12:04:34.876Z,3.13
2022-08-30T12:07:08.651Z,2.90
2022-08-30T12:09:36.010Z,2.70
2022-08-30T12:12:37.916Z,2.40
2022-08-30T12:15:05.904Z,2.60
2022-08-30T12:18:15.763Z,2.92
2022-08-30T12:20:48.256Z,2.47
2022-08-30T12:23:21.717Z,3.45
2022-08-30T12:25:50.899Z,2.15
2022-08-30T12:28:24.830Z,2.22
2022-08-30T12:30:53.704Z,2.90
2022-08-30T12:33:36.613Z,2.88
2022-08-30T12:36:16.568Z,2.53
2022-08-30T12:38:45.215Z,2.35
2022-08-30T12:41:20.139Z,2.35
2022-08-30T12:43:52.555Z,2.75
2022-08-30T12:48:48.767Z,2.50
2022-08-30T12:51:45.558Z,2.70
2022-08-30T12:54:21.458Z,2.45
2022-08-30T12:59:58.489Z,2.72
2022-08-30T13:02:52.697Z,2.42
2022-08-30T13:05:37.384Z,2.75
2022-08-30T13:08:18.521Z,2.80
2022-08-30T13:11:07.325Z,2.90
2022-08-30T13:13:52.699Z,2.97
2022-08-30T13:16:23.367Z,3.00
2022-08-30T13:18:53.516Z,2.60
2022-08-30T13:21:33.101Z,2.83
2022-08-30T13:24:02.981Z,2.70
2022-08-30T13:26:39.976Z,2.45
2022-08-30T13:29:14.907Z,2.90
2022-08-30T13:31:42.090Z,2.55
2022-08-30T13:34:11.171Z,2.70
2022-08-30T13:36:46.449Z,2.80
2022-08-30T13:39:15.362Z,2.67
2022-08-30T13:41:43.585Z,2.80
2022-08-30T13:44:12.681Z,3.00
2022-08-30T13:46:48.627Z,2.90
2022-08-30T13:52:23.014Z,2.80
2022-08-30T13:54:55.406Z,3.00
2022-08-30T14:00:19.703Z,2.83
2022-08-30T14:02:54.579Z,2.70
2022-08-30T14:05:48.832Z,2.67
2022-08-30T14:11:12.055Z,2.85
2022-08-30T14:16:31.710Z,2.80
2022-08-30T14:19:00.648Z,3.00
2022-08-30T14:21:28.574Z,3.30
2022-08-30T14:23:57.684Z,3.00
2022-08-30T14:26:33.634Z,3.00
2022-08-30T14:29:04.147Z,2.80
2022-08-30T14:31:32.612Z,3.40
2022-08-30T14:34:02.029Z,2.85
2022-08-30T14:36:31.550Z,2.90
2022-08-30T14:38:58.686Z,3.20
2022-08-30T14:41:26.266Z,3.00
2022-08-30T14:43:53.490Z,3.30
2022-08-30T14:46:22.193Z,3.15
2022-08-30T14:48:50.413Z,3.30
2022-08-30T14:51:20.813Z,3.10
2022-08-30T14:53:51.342Z,3.63
2022-08-30T14:56:20.338Z,3.42
2022-08-30T14:58:52.431Z,3.08
2022-08-30T15:01:22.469Z,3.45
2022-08-30T15:03:53.029Z,3.00
2022-08-30T15:06:20.384Z,3.15
2022-08-30T15:08:51.529Z,2.70
2022-08-30T15:11:20.884Z,3.30
2022-08-30T15:13:48.825Z,3.10
2022-08-30T15:16:29.681Z,3.17
2022-08-30T15:18:58.267Z,3.50
2022-08-30T15:21:26.194Z,3.50
2022-08-30T15:23:53.962Z,3.20
2022-08-30T15:26:22.130Z,3.17
2022-08-30T15:28:50.469Z,3.60
2022-08-30T15:31:23.847Z,3.38
2022-08-30T15:33:51.181Z,3.10
2022-08-30T15:36:18.557Z,3.22
2022-08-30T15:38:46.055Z,3.05
2022-08-30T15:41:13.691Z,3.67
2022-08-30T15:43:42.103Z,3.63
2022-08-30T15:46:22.909Z,3.38
2022-08-30T15:48:57.426Z,3.53
2022-08-30T15:51:25.945Z,3.72
2022-08-30T15:53:53.381Z,3.40
2022-08-30T15:56:21.254Z,3.53
2022-08-30T15:58:48.734Z,3.55
2022-08-30T16:01:22.834Z,3.30
2022-08-30T16:04:00.521Z,3.90
2022-08-30T16:06:35.549Z,3.67
2022-08-30T16:09:04.249Z,3.35
2022-08-30T16:11:32.477Z,3.67
2022-08-30T16:13:59.937Z,3.28
2022-08-30T16:16:27.474Z,3.33
2022-08-30T16:18:55.403Z,3.80
2022-08-30T16:21:29.403Z,3.03
2022-08-30T16:23:59.165Z,3.40
2022-08-30T16:26:29.636Z,3.25
2022-08-30T16:28:57.085Z,3.92
2022-08-30T16:31:26.864Z,3.83
2022-08-30T16:33:57.343Z,3.63
2022-08-30T16:36:29.948Z,3.60
2022-08-30T16:38:58.318Z,3.47
2022-08-30T16:41:28.059Z,3.42
2022-08-30T16:43:56.195Z,3.30
2022-08-30T16:46:27.822Z,4.07
2022-08-30T16:49:03.937Z,3.80
2022-08-30T16:51:33.483Z,4.00
2022-08-30T16:54:05.150Z,4.05
2022-08-30T16:56:33.854Z,3.67
2022-08-30T16:59:03.289Z,3.97
2022-08-30T17:01:35.400Z,3.80
2022-08-30T17:04:04.493Z,3.88
2022-08-30T17:06:33.244Z,3.88
2022-08-30T17:09:03.917Z,3.88
2022-08-30T17:11:33.843Z,4.05
2022-08-30T17:14:01.588Z,3.38
2022-08-30T17:16:30.156Z,3.85
2022-08-30T17:18:59.789Z,3.90
2022-08-30T17:21:31.007Z,3.80
2022-08-30T17:24:02.391Z,3.83
2022-08-30T17:26:34.167Z,3.80
2022-08-30T17:29:01.600Z,3.70
2022-08-30T17:31:31.249Z,3.42
2022-08-30T17:34:03.154Z,3.67
2022-08-30T17:36:35.532Z,3.70
2022-08-30T17:39:11.243Z,3.70
2022-08-30T17:41:48.231Z,3.15
2022-08-30T17:44:25.579Z,3.70
2022-08-30T17:46:53.924Z,4.03
2022-08-30T17:49:22.800Z,3.85
2022-08-30T17:51:56.141Z,3.55
2022-08-30T17:54:24.381Z,3.70
2022-08-30T17:56:54.183Z,4.28
2022-08-30T17:59:25.409Z,3.63
2022-08-30T18:01:54.943Z,4.35
2022-08-30T18:04:24.875Z,4.03
2022-08-30T18:06:53.946Z,3.90
2022-08-30T18:09:21.738Z,3.83
2022-08-30T18:11:50.021Z,4.50
2022-08-30T18:14:17.692Z,3.65
2022-08-30T18:16:49.618Z,3.60
2022-08-30T18:19:26.336Z,4.10
2022-08-30T18:21:54.522Z,4.20
2022-08-30T18:24:23.832Z,4.03
2022-08-30T18:26:54.541Z,4.03
2022-08-30T18:29:29.109Z,4.32
2022-08-30T18:32:04.525Z,4.03
2022-08-30T18:34:32.919Z,3.67
2022-08-30T18:37:00.399Z,4.30
2022-08-30T18:39:29.014Z,4.30
2022-08-30T18:42:04.817Z,4.05
2022-08-30T18:44:33.844Z,4.63
2022-08-30T18:47:03.816Z,4.25
2022-08-30T18:49:34.587Z,4.53
2022-08-30T18:52:06.657Z,4.13
2022-08-30T18:54:47.279Z,4.00
2022-08-30T18:57:19.508Z,3.88
2022-08-30T18:59:46.733Z,3.67
2022-08-30T19:02:15.999Z,4.10
2022-08-30T19:04:49.587Z,4.35
2022-08-30T19:07:19.922Z,4.35
2022-08-30T19:09:47.953Z,4.50
2022-08-30T19:12:15.413Z,4.47
2022-08-30T19:14:43.410Z,4.13
2022-08-30T19:17:11.018Z,4.38
2022-08-30T19:19:47.388Z,4.35
2022-08-30T19:22:19.807Z,4.30
2022-08-30T19:24:50.803Z,4.00
2022-08-30T19:27:21.557Z,4.20
2022-08-30T19:30:08.258Z,4.55
2022-08-30T19:32:36.000Z,4.45
2022-08-30T19:35:03.509Z,4.55
2022-08-30T19:37:31.078Z,5.13
2022-08-30T19:40:03.835Z,4.38
2022-08-30T19:42:31.963Z,4.40
2022-08-30T19:45:02.547Z,4.68
2022-08-30T19:47:30.018Z,4.95
2022-08-30T19:50:02.354Z,4.72
2022-08-30T19:52:31.620Z,4.53
2022-08-30T19:55:00.663Z,4.72
2022-08-30T19:57:28.774Z,4.50
2022-08-30T19:59:58.564Z,4.97
2022-08-30T20:02:27.293Z,5.85
2022-08-30T20:04:55.163Z,5.95
2022-08-30T20:07:26.265Z,4.75
2022-08-30T20:09:57.623Z,4.78
2022-08-30T20:12:26.758Z,5.45
2022-08-30T20:14:59.245Z,4.68
2022-08-30T20:17:42.318Z,4.32
2022-08-30T20:20:20.517Z,4.20
2022-08-30T20:22:54.371Z,4.88
2022-08-30T20:25:22.961Z,5.00
2022-08-30T20:27:56.604Z,5.93
2022-08-30T20:30:23.973Z,6.10
2022-08-30T20:32:52.845Z,5.30
2022-08-30T20:35:20.361Z,6.18
2022-08-30T20:37:47.704Z,5.57
2022-08-30T20:40:16.154Z,5.75
2022-08-30T20:42:45.876Z,4.75
2022-08-30T20:45:17.263Z,5.00
2022-08-30T20:47:44.768Z,5.65
2022-08-30T20:50:19.609Z,4.75
2022-08-30T20:52:47.070Z,4.80
2022-08-30T20:55:14.802Z,5.47
2022-08-30T20:57:42.248Z,4.90
2022-08-30T21:00:12.258Z,5.18
2022-08-30T21:02:46.561Z,4.22
2022-08-30T21:05:17.416Z,4.30
2022-08-30T21:07:46.585Z,5.57
2022-08-30T21:10:23.132Z,4.72
2022-08-30T21:12:50.791Z,5.35
2022-08-30T21:15:36.692Z,5.18
2022-08-30T21:18:04.965Z,5.22
2022-08-30T21:20:33.063Z,4.53
2022-08-30T21:23:00.544Z,4.68
2022-08-30T21:25:27.712Z,4.95
2022-08-30T21:27:55.183Z,5.28
2022-08-30T21:30:22.503Z,5.50
2022-08-30T21:32:49.671Z,5.68
2022-08-30T21:35:35.695Z,5.22
2022-08-30T21:38:06.718Z,5.05
2022-08-30T21:40:34.007Z,5.10
2022-08-30T21:43:05.589Z,5.25
2022-08-30T21:45:37.835Z,5.13
2022-08-30T21:48:05.651Z,6.07
2022-08-30T21:50:33.036Z,5.50
2022-08-30T21:53:01.177Z,5.57
2022-08-30T21:55:28.474Z,6.05
2022-08-30T21:57:55.702Z,5.55
2022-08-30T22:00:22.958Z,5.53
2022-08-30T22:02:53.286Z,5.22
2022-08-30T22:05:20.791Z,5.95
2022-08-30T22:07:48.125Z,5.65
2022-08-30T22:10:15.435Z,5.85
2022-08-30T22:12:42.723Z,5.00
2022-08-30T22:15:10.757Z,5.43
2022-08-30T22:17:37.990Z,5.38
2022-08-30T22:20:06.537Z,5.50
2022-08-30T22:22:34.048Z,5.97
2022-08-30T22:25:01.166Z,6.28
2022-08-30T22:27:28.564Z,6.30
2022-08-30T22:29:55.695Z,6.13
2022-08-30T22:32:23.455Z,6.20
2022-08-30T22:34:51.170Z,6.05
2022-08-30T22:37:18.491Z,6.28
2022-08-30T22:39:45.722Z,6.03
2022-08-30T22:42:13.869Z,5.70
2022-08-30T22:44:41.040Z,5.57
2022-08-30T22:47:08.989Z,5.78
2022-08-30T22:49:36.116Z,6.20
2022-08-30T22:52:03.678Z,6.45
2022-08-30T22:54:31.362Z,5.82
2022-08-30T22:56:58.512Z,6.15
2022-08-30T22:59:30.415Z,5.80
2022-08-30T23:02:00.295Z,6.03
2022-08-30T23:04:27.909Z,5.53
2022-08-30T23:06:55.251Z,5.97
2022-08-30T23:09:23.115Z,5.60
2022-08-30T23:11:50.421Z,5.68
2022-08-30T23:14:17.759Z,5.22
2022-08-30T23:16:45.402Z,6.05
2022-08-30T23:19:13.107Z,5.68
2022-08-30T23:21:40.372Z,6.00
2022-08-30T23:24:25.952Z,6.40
2022-08-30T23:27:12.702Z,5.97
2022-08-30T23:30:00.176Z,6.07
2022-08-30T23:32:45.763Z,5.82
2022-08-30T23:35:32.621Z,5.20
2022-08-30T23:38:21.741Z,5.57
2022-08-30T23:41:07.272Z,5.65
2022-08-30T23:43:54.219Z,4.80
2022-08-30T23:46:40.377Z,4.95
2022-08-30T23:49:25.888Z,4.78
2022-08-30T23:52:12.094Z,4.93
2022-08-30T23:54:57.803Z,5.40
2022-08-30T23:57:45.176Z,5.00
